Aérodrome :
LOGIN :

S'inscrire | Disclaimer

   EN    FR    IT 

 










Légende :    VFR   VFR Marginal   IFR   IFR Intensif   IFR Très Intensif
Visi : 
Plafond : 
>= 8 km
>= 3000ft
5 à 8 km
1000 à 3000 ft
1500m à 5 km
500 à 1000 ft
800 à 1500m
200 à 500 ft
< 800m
< 200 ft
Symboles :   Orages  Brouillard  Fortes neiges  Fortes précipitations  Vent > 20 kt
SIGMETs :   Divers  Orages  Givrage  Turbulence  Onde Orograph.  Cendres Volcan.






- Altitude de l'aérodrome : 463 ft
- Code IATA : SZY
- AEROPORT FERMÉ.


EPSY - Szczytno

DERNIER METAR :
  • 111900Z 16008KT 3400 BR OVC003 M02/M02 Q1015

METARs EXPIRÉS :
  • 111830Z 15009KT 3000 BR OVC003 M03/M03 Q1015
  • 111800Z 15009KT 110V180 8000 SCT005 M03/M04 Q1015

TAF AMD TAF EPSY
Valide du 11 à 18h jusqu'au 12 à 03h UTC


111808Z 1118/1203 16005KT 4000 BR OVC005
PROB30
TEMPO 1118/1203 2000 BR OVC002



MET'MAP, la Météo Aéronautique d'un coup d'oeil ! - Copyright ORBIFLY Décembre 2007 - Disclaimer

ORBIFLY MET'MAP TEAM :

Programmation & Développement : Alexandra Zaïnal
Sur une idée originale de : Baudouin d'Aumeries
Assistance à la programmation : Marc-Olivier Méhu
Soutien technique & logistique : Manuel Goepfert

Contact : metmap@orbifly.com




SOURCES & CREDITS :

   NOAA